Nearby METAR Reports

 

CWGT - Sisters Island (Auto)
Distance from station: NE 39km
Updated: 2023-01-30 16:00

 Wind from ESE
Wind: ESE 19 km/h
Temperature: 2°C
Wind Chill: -2°C
Dew Point: -6°C
Humidity: 56%
2023/01/31 00:00 CWGT 310000Z AUTO 11010KT 02/M06 RMK AO1 SLP293 T00201056 56015
CWGB - Ballenas Island (Auto)
Distance from station: ENE 47km
Updated: 2023-01-30 16:00

 Wind from E
Wind: E 17 km/h
Temperature: 2°C
Wind Chill: -2°C
2023/01/31 00:00 CWGB 310000Z AUTO 10009KT 02/ RMK AO1 SLP289 T0022 56013
CYQQ - CFB Comox
Distance from station: N 55km
Updated: 2023-01-30 16:00
Overcast
Overcast
 Wind from SSE
Wind: SSE 7 km/h
Temperature: 2°C
Wind Chill: 0°C
Dew Point: -5°C
Humidity: 60%
Barometer: 1029.5 hPa
Clouds: Overcast
Visibility: 32 km
Cloud details: Few Clouds 914 m
Overcast 4877 m
2023/01/31 00:00 CYQQ 310000Z 16004KT 20SM FEW030 OVC160 02/M05 A3040 RMK SC1AS8 SLP296
 
CYPW - Powell River Airport
Distance from station: NNE 69km
Updated: 2023-01-30 16:00
Overcast
Overcast
 Wind from varies
Wind: varies 4 km/h
Temperature: 1°C
Dew Point: -4°C
Humidity: 70%
Barometer: 1028.8 hPa
Clouds: Overcast
Visibility: 48 km
Cloud details: Few Clouds 610 m
Few Clouds 945 m
Partly cloudy 4267 m
Overcast 7620 m
2023/01/31 00:00 CYPW 310000Z VRB02KT 30SM FEW020 FEW031 SCT140 OVC250 01/M04 A3038 RMK SC1SC1AC3CI4 SC TR SLP297
CYCD - Nanaimo Airport
Distance from station: ESE 70km
Updated: 2023-01-30 16:00
Overcast
Overcast
 Wind from ESE
Wind: ESE 6 km/h
Temperature: 2°C
Dew Point: -6°C
Humidity: 56%
Barometer: 1029.1 hPa
Clouds: Overcast
Visibility: 48 km
Cloud details: Few Clouds 1219 m
Overcast 4267 m
2023/01/31 00:00 CYCD 310000Z 12003KT 080V140 30SM FEW040 OVC140 02/M06 A3039 RMK SC1AC7 SLP293
CYAZ - Tofino Airport
Distance from station: WSW 73km
Updated: 2023-01-30 16:00
Overcast
Overcast
 Wind from E
Wind: E 9 km/h
Temperature: 4°C
Wind Chill: 2°C
Dew Point: -1°C
Humidity: 70%
Barometer: 1027.8 hPa
Clouds: Overcast
Visibility: 24 km
Cloud details: Partly cloudy 640 m
Mostly cloudy 1219 m
Overcast 7620 m
2023/01/31 00:00 CYAZ 310000Z 10005KT 15SM SCT021 BKN040 OVC250 04/M01 A3035 RMK SC3SC4CS1 SLP282
 
CWEL - Entrance Island (Auto)
Distance from station: E 73km
Updated: 2023-01-30 16:00

 Wind from ESE
Wind: ESE 13 km/h
Temperature: 2°C
Wind Chill: -1°C
Dew Point: -3°C
Humidity: 70%
2023/01/31 00:00 CWEL 310000Z AUTO 11007KT 02/M03 RMK AO1 SLP291 T00201032 56015
CYBL - Campbell River Airport
Distance from station: NNW 88km
Updated: 2023-01-30 16:00
Overcast
Overcast
 Wind from ESE
Wind: ESE 7 km/h
Temperature: 1°C
Wind Chill: -2°C
Dew Point: -5°C
Humidity: 65%
Barometer: 1028.4 hPa
Clouds: Overcast
Visibility: 48 km
Cloud details: Few Clouds 914 m
Overcast 4267 m
Overcast 7620 m
2023/01/31 00:00 CYBL 310000Z 12004KT 30SM FEW030 OVC140 OVC250 01/M05 A3037 RMK SC1AC5CI2 SLP293
CWKH - Malahat Highway (Auto)
Distance from station: SE 116km
Updated: 2023-01-30 16:00

 
Temperature: -1°C
Dew Point: -3°C
Humidity: 86%
2023/01/31 00:00 CWKH 310000Z AUTO M01/M03 RMK AO1 SLP273 T10061034 56018
 
CYVR - Vancouver Intl Airport
Distance from station: E 118km
Updated: 2023-01-30 16:00
Mostly cloudy
Mostly cloudy
 Wind from E
Wind: E 11 km/h
Temperature: 1°C
Wind Chill: -2°C
Dew Point: -7°C
Humidity: 56%
Barometer: 1029.1 hPa
Clouds: Mostly cloudy
Visibility: 48 km
Cloud details: Mostly cloudy 4572 m
Mostly cloudy 5791 m
2023/01/31 00:00 CYVR 310000Z 10006KT 30SM BKN150 BKN190 01/M07 A3039 RMK AS5AS2 SLP295
CYYJ - Victoria Intl Airport
Distance from station: ESE 120km
Updated: 2023-01-30 16:00
Overcast
Overcast
 Wind from SSE
Wind: SSE 13 km/h
Temperature: 2°C
Wind Chill: -1°C
Dew Point: -4°C
Humidity: 65%
Barometer: 1028.8 hPa
Clouds: Overcast
Visibility: 48 km
Cloud details: Partly cloudy 4572 m
Overcast 7315 m
2023/01/31 00:00 CYYJ 310000Z 16007KT 30SM SCT150 OVC240 02/M04 A3038 RMK AC3CI5 SLP291
CWEB - Estevan Pt. (Auto)
Distance from station: W 129km
Updated: 2023-01-30 15:00
NOT Current

 Wind from N
Wind: N 56 km/h
Temperature: 7°C
Wind Chill: 2°C
Dew Point: -3°C
Humidity: 49%
2023/01/30 23:00 CWEB 302300Z AUTO 00030KT 07/M03 RMK AO1 SLP326 T00701027 57011
 
CWQK - Race Rocks (Auto)
Distance from station: SE 138km
Updated: 2023-01-30 16:00

 Wind from E
Wind: E 11 km/h
2023/01/31 00:00 CWQK 310000Z AUTO 10006KT RMK AO1 56019
CWAE - Whistler
Distance from station: NE 167km
Updated: 2023-01-30 16:00
Overcast
Overcast
 Wind from S
Wind: S 9 km/h
Temperature: -3°C
Wind Chill: -7°C
Dew Point: -12°C
Humidity: 50%
Barometer: 1024.4 hPa
Clouds: Overcast
Visibility: 24 km
Cloud details: Overcast 6401 m
2023/01/31 00:00 CWAE 310000Z 18005KT 15SM OVC210 M03/M12 A3025 RMK CS8 WIND EST SLP280
CYZT - Port Hardy Airport
Distance from station: NW 244km
Updated: 2023-01-30 16:00
Overcast
Overcast
 Wind from SE
Wind: SE 7 km/h
Temperature: 3°C
Wind Chill: 1°C
Dew Point: -2°C
Humidity: 70%
Barometer: 1028.1 hPa
Clouds: Overcast
Visibility: 32 km
Cloud details: Mostly cloudy 1433 m
Overcast 5182 m
2023/01/31 00:00 CYZT 310000Z 13004KT 20SM BKN047 OVC170 03/M02 A3036 RMK SC6AC2 SLP283
 
CWRU - Solander Isl (Auto)
Distance from station: WNW 247km
Updated: 2023-01-30 16:00

 Wind from ESE
Wind: ESE 20 km/h
Temperature: 4°C
Wind Chill: -1°C
2023/01/31 00:00 CWRU 310000Z AUTO 12011KT 04/ RMK AO1 SLP270 T0042 56014